Islington, United Kingdom
Current Conditions -  °F | °C
As of 5:50 PM on Wednesday 28 Jan 2015 (Local Time) from EGLC Reporting Station
Clear Clear  
Wind Chill: 32°   Ceiling: Unl
Heat Index: 41°   Visibility: 6mi
Dew Point: 25°   Wind: 18mph
Humidity: 53%   Direction: 270°W
Pressure: 29.59"   Gusts: NA
Location:  51.54°N, 0.1°W
Report Text: EGLC 281750Z 27016KT CAVOK 05/M04 Q1002
Loading
Personal Weather Stations






























Interactive Weather Map New forecast layout! Learn more

10-Day Weather Forecast

Advertisements
Track Severe Weather on mobile